createdAt,value
2019-04-29T00:01:14.293Z,6.00
2019-04-29T00:03:47.228Z,6.50
2019-04-29T00:06:20.470Z,7.75
2019-04-29T00:08:53.471Z,8.50
2019-04-29T00:11:26.557Z,5.50
2019-04-29T00:13:59.491Z,6.00
2019-04-29T00:16:32.458Z,5.00
2019-04-29T00:19:05.506Z,8.00
2019-04-29T00:21:38.485Z,8.25
2019-04-29T00:24:12.147Z,9.50
2019-04-29T00:26:45.520Z,10.00
2019-04-29T00:29:18.609Z,8.00
2019-04-29T00:31:51.747Z,8.50
2019-04-29T00:34:24.732Z,5.00
2019-04-29T00:36:57.720Z,7.00
2019-04-29T00:39:30.859Z,4.50
2019-04-29T00:42:04.027Z,3.00
2019-04-29T00:44:36.974Z,2.00
2019-04-29T00:47:10.023Z,2.25
2019-04-29T00:49:42.964Z,7.25
2019-04-29T00:52:15.837Z,8.25
2019-04-29T00:54:48.724Z,5.25
2019-04-29T00:57:21.624Z,9.50
2019-04-29T00:59:54.912Z,13.75
2019-04-29T01:02:27.933Z,10.25
2019-04-29T01:05:00.880Z,10.75
2019-04-29T01:07:33.927Z,12.00
2019-04-29T01:10:07.098Z,13.75
2019-04-29T01:12:40.088Z,17.25
2019-04-29T01:15:13.337Z,14.00
2019-04-29T01:17:46.262Z,10.50
2019-04-29T01:20:19.269Z,10.25
2019-04-29T01:22:52.287Z,13.00
2019-04-29T01:25:25.302Z,14.50
2019-04-29T01:27:58.387Z,14.00
2019-04-29T01:30:56.092Z,11.75
2019-04-29T01:33:29.037Z,10.75
2019-04-29T01:36:01.992Z,9.00
2019-04-29T01:38:34.906Z,12.00
2019-04-29T01:41:08.130Z,17.25
2019-04-29T01:43:40.988Z,16.25
2019-04-29T01:46:14.165Z,11.00
2019-04-29T01:48:47.071Z,9.00
2019-04-29T01:51:20.070Z,8.25
2019-04-29T01:53:53.033Z,8.25
2019-04-29T01:56:27.196Z,7.50
2019-04-29T01:59:00.058Z,7.00
2019-04-29T02:01:33.383Z,7.50
2019-04-29T02:04:06.421Z,9.50
2019-04-29T02:06:39.431Z,7.50
2019-04-29T02:09:12.773Z,9.50
2019-04-29T02:11:45.779Z,11.25
2019-04-29T02:14:18.675Z,9.75
2019-04-29T02:16:53.221Z,11.25
2019-04-29T02:19:26.148Z,11.50
2019-04-29T02:21:59.042Z,8.75
2019-04-29T02:24:31.936Z,3.00
2019-04-29T02:27:05.807Z,3.25
2019-04-29T02:29:38.759Z,4.00
2019-04-29T02:32:11.715Z,4.00
2019-04-29T02:34:44.647Z,6.00
2019-04-29T02:37:17.654Z,8.75
2019-04-29T02:39:50.581Z,8.75
2019-04-29T02:42:23.489Z,5.00
2019-04-29T02:44:56.423Z,5.50
2019-04-29T02:47:29.346Z,6.00
2019-04-29T02:50:02.449Z,6.00
2019-04-29T02:52:35.347Z,7.00
2019-04-29T02:55:08.520Z,9.00
2019-04-29T02:57:41.382Z,8.50
2019-04-29T03:00:14.872Z,9.75
2019-04-29T03:02:47.860Z,8.00
2019-04-29T03:05:20.919Z,3.50
2019-04-29T03:07:53.915Z,3.75
2019-04-29T03:10:27.262Z,3.75
2019-04-29T03:13:00.297Z,5.50
2019-04-29T03:15:33.380Z,7.50
2019-04-29T03:18:06.436Z,7.75
2019-04-29T03:20:39.702Z,6.50
2019-04-29T03:23:12.769Z,8.50
2019-04-29T03:25:45.902Z,9.00
2019-04-29T03:28:18.895Z,7.00
2019-04-29T03:30:51.900Z,6.75
2019-04-29T03:33:24.911Z,8.00
2019-04-29T03:35:58.113Z,9.00
2019-04-29T03:38:31.026Z,12.25
2019-04-29T03:41:03.952Z,7.50
2019-04-29T03:43:37.197Z,6.00
2019-04-29T03:46:10.178Z,9.00
2019-04-29T03:48:43.020Z,10.25
2019-04-29T03:51:16.223Z,9.00
2019-04-29T03:53:49.132Z,12.25
2019-04-29T03:56:22.050Z,12.00
2019-04-29T03:58:54.911Z,11.50
2019-04-29T04:01:27.823Z,7.00
2019-04-29T04:04:00.701Z,7.00
2019-04-29T04:06:33.574Z,8.75
2019-04-29T04:09:06.786Z,7.75
2019-04-29T04:11:39.898Z,9.00
2019-04-29T04:14:12.756Z,8.75
2019-04-29T04:16:45.600Z,6.75
2019-04-29T04:19:18.558Z,8.75
2019-04-29T04:21:51.399Z,6.00
2019-04-29T04:24:24.425Z,6.75
2019-04-29T04:26:57.313Z,7.25
2019-04-29T04:29:30.185Z,6.50
2019-04-29T04:32:03.195Z,7.50
2019-04-29T04:34:36.047Z,6.75
2019-04-29T04:37:08.910Z,9.00
2019-04-29T04:39:41.908Z,8.00
2019-04-29T04:42:15.122Z,8.25
2019-04-29T04:44:48.011Z,9.25
2019-04-29T04:47:21.007Z,9.50
2019-04-29T04:49:53.899Z,8.00
2019-04-29T04:52:27.159Z,8.50
2019-04-29T04:55:00.328Z,10.75
2019-04-29T04:57:33.295Z,10.00
2019-04-29T05:00:06.541Z,10.50
2019-04-29T05:02:39.576Z,9.00
2019-04-29T05:05:12.806Z,10.50
2019-04-29T05:07:45.845Z,11.25
2019-04-29T05:10:18.892Z,14.50
2019-04-29T05:12:51.853Z,16.25
2019-04-29T05:15:25.200Z,16.00
2019-04-29T05:17:58.287Z,13.25
2019-04-29T05:20:31.227Z,13.50
2019-04-29T05:23:04.314Z,12.50
2019-04-29T05:25:37.335Z,12.25
2019-04-29T05:28:10.283Z,12.50
2019-04-29T05:30:43.437Z,12.00
2019-04-29T05:33:16.412Z,15.75
2019-04-29T05:35:49.327Z,11.50
2019-04-29T05:38:22.363Z,16.25
2019-04-29T05:40:56.988Z,15.00
2019-04-29T05:43:32.097Z,13.75
2019-04-29T05:46:07.384Z,28.00
2019-04-29T05:48:39.545Z,25.00
2019-04-29T05:51:12.487Z,20.25
2019-04-29T05:53:47.792Z,17.75
2019-04-29T05:56:19.964Z,18.75
2019-04-29T05:58:52.901Z,19.25
2019-04-29T06:01:25.877Z,17.75
2019-04-29T06:03:58.866Z,22.00
2019-04-29T06:06:31.713Z,16.00
2019-04-29T06:09:06.529Z,20.25
2019-04-29T06:11:39.492Z,18.50
2019-04-29T06:14:12.874Z,18.25
2019-04-29T06:16:46.239Z,17.75
2019-04-29T06:19:19.201Z,20.50
2019-04-29T06:21:52.163Z,16.75
2019-04-29T06:24:25.105Z,18.00
2019-04-29T06:26:58.257Z,19.25
2019-04-29T06:29:31.195Z,31.50
2019-04-29T06:32:04.359Z,32.50
2019-04-29T06:34:40.194Z,26.75
2019-04-29T06:37:12.356Z,18.00
2019-04-29T06:39:46.006Z,17.25
2019-04-29T06:42:19.657Z,15.00
2019-04-29T06:44:53.484Z,16.25
2019-04-29T06:47:26.489Z,18.00
2019-04-29T06:49:59.386Z,18.50
2019-04-29T06:52:32.627Z,19.25
2019-04-29T06:55:06.519Z,54.25
2019-04-29T06:57:39.433Z,21.50
2019-04-29T07:00:12.695Z,18.60
2019-04-29T07:02:49.754Z,17.80
2019-04-29T07:05:20.541Z,17.40
2019-04-29T07:07:53.434Z,15.20
2019-04-29T07:10:27.311Z,13.80
2019-04-29T07:13:00.629Z,15.80
2019-04-29T07:15:33.666Z,15.40
2019-04-29T07:18:06.833Z,15.40
2019-04-29T07:20:39.810Z,17.20
2019-04-29T07:23:12.904Z,14.60
2019-04-29T07:25:45.869Z,12.80
2019-04-29T07:28:19.667Z,15.60
2019-04-29T07:31:01.576Z,12.40
2019-04-29T07:33:27.415Z,14.20
2019-04-29T07:36:10.863Z,14.20
2019-04-29T07:38:41.508Z,10.60
2019-04-29T07:41:10.140Z,10.40
2019-04-29T07:43:44.220Z,10.00
2019-04-29T07:46:17.221Z,8.00
2019-04-29T07:49:00.736Z,8.40
2019-04-29T07:51:25.064Z,7.00
2019-04-29T07:53:57.937Z,6.80
2019-04-29T07:56:30.959Z,5.60
2019-04-29T07:59:04.631Z,6.00
2019-04-29T08:01:37.661Z,5.60
2019-04-29T08:04:10.705Z,5.00
2019-04-29T08:06:44.989Z,17.80
2019-04-29T08:09:18.138Z,12.80
2019-04-29T08:11:51.411Z,20.80
2019-04-29T08:14:27.474Z,7.60
2019-04-29T08:17:00.758Z,7.00
2019-04-29T08:19:33.990Z,5.60
2019-04-29T08:22:06.922Z,3.00
2019-04-29T08:24:39.921Z,4.80
2019-04-29T08:27:12.926Z,4.40
2019-04-29T08:29:46.115Z,7.00
2019-04-29T08:32:19.020Z,5.60
2019-04-29T08:34:53.606Z,8.00
2019-04-29T08:37:26.903Z,5.00
2019-04-29T08:40:15.152Z,14.20
2019-04-29T08:42:37.233Z,8.60
2019-04-29T08:45:09.671Z,7.40
2019-04-29T08:47:42.756Z,7.40
2019-04-29T08:50:16.183Z,7.00
2019-04-29T08:52:49.127Z,8.00
2019-04-29T08:55:22.043Z,7.40
2019-04-29T08:57:54.960Z,7.80
2019-04-29T09:00:27.981Z,8.40
2019-04-29T09:03:00.943Z,8.80
2019-04-29T09:05:33.931Z,10.20
2019-04-29T09:08:06.874Z,8.20
2019-04-29T09:10:40.082Z,9.20
2019-04-29T09:13:13.055Z,8.80
2019-04-29T09:15:46.129Z,8.40
2019-04-29T09:18:19.435Z,6.60
2019-04-29T09:20:52.514Z,6.60
2019-04-29T09:23:25.805Z,12.00
2019-04-29T09:26:02.963Z,17.60
2019-04-29T09:28:33.441Z,11.40
2019-04-29T09:31:06.392Z,7.00
2019-04-29T09:33:39.293Z,6.40
2019-04-29T09:36:13.958Z,8.00
2019-04-29T09:38:47.157Z,12.40
2019-04-29T09:41:20.189Z,7.00
2019-04-29T09:43:53.095Z,9.00
2019-04-29T09:46:30.040Z,16.40
2019-04-29T09:49:01.007Z,14.40
2019-04-29T09:51:33.980Z,5.60
2019-04-29T09:54:09.628Z,8.20
2019-04-29T09:56:42.048Z,6.60
2019-04-29T09:59:14.919Z,7.60
2019-04-29T10:01:50.602Z,7.20
2019-04-29T10:04:22.608Z,8.80
2019-04-29T10:06:55.587Z,8.40
2019-04-29T10:09:28.490Z,7.60
2019-04-29T10:12:01.450Z,25.40
2019-04-29T10:14:34.446Z,10.80
2019-04-29T10:17:11.169Z,11.80
2019-04-29T10:19:42.055Z,7.00
2019-04-29T10:22:15.252Z,7.00
2019-04-29T10:24:48.227Z,7.00
2019-04-29T10:27:21.225Z,11.80
2019-04-29T10:29:55.293Z,8.20
2019-04-29T10:32:28.848Z,8.00
2019-04-29T10:35:03.646Z,7.80
2019-04-29T10:37:36.850Z,8.60
2019-04-29T10:40:11.862Z,8.60
2019-04-29T10:42:44.829Z,7.80
2019-04-29T10:45:17.917Z,9.40
2019-04-29T10:47:51.302Z,10.60
2019-04-29T10:50:26.949Z,11.20
2019-04-29T10:53:01.333Z,12.80
2019-04-29T10:55:34.357Z,11.00
2019-04-29T10:58:07.597Z,9.00
2019-04-29T11:01:23.691Z,10.00
2019-04-29T11:04:00.710Z,10.80
2019-04-29T11:06:35.874Z,9.00
2019-04-29T11:09:09.649Z,11.20
2019-04-29T11:11:43.457Z,6.60
2019-04-29T11:14:17.063Z,9.60
2019-04-29T11:16:49.978Z,8.00
2019-04-29T11:19:23.053Z,9.40
2019-04-29T11:21:55.983Z,8.00
2019-04-29T11:24:32.330Z,8.60
2019-04-29T11:27:11.681Z,7.80
2019-04-29T11:29:38.971Z,10.00
2019-04-29T11:32:12.585Z,8.00
2019-04-29T11:34:48.441Z,6.80
2019-04-29T11:37:20.205Z,9.00
2019-04-29T11:39:53.375Z,8.40
2019-04-29T11:42:26.282Z,7.40
2019-04-29T11:45:02.114Z,5.20
2019-04-29T11:47:33.953Z,7.80
2019-04-29T11:50:11.796Z,9.20
2019-04-29T11:52:42.540Z,8.20
2019-04-29T11:55:18.603Z,10.40
2019-04-29T11:57:51.002Z,10.60
2019-04-29T12:00:24.110Z,12.20
2019-04-29T12:02:57.108Z,12.40
2019-04-29T12:05:30.399Z,13.00
2019-04-29T12:08:11.159Z,12.80
2019-04-29T12:10:46.715Z,12.80
2019-04-29T12:13:13.078Z,13.60
2019-04-29T12:15:49.274Z,11.40
2019-04-29T12:18:20.942Z,10.40
2019-04-29T12:20:53.930Z,8.20
2019-04-29T12:23:26.834Z,10.80
2019-04-29T12:26:03.224Z,12.20
2019-04-29T12:28:37.836Z,11.80
2019-04-29T12:31:10.259Z,11.60
2019-04-29T12:33:44.082Z,15.20
2019-04-29T12:36:17.116Z,12.80
2019-04-29T12:38:51.139Z,14.80
2019-04-29T12:41:29.658Z,14.00
2019-04-29T12:43:59.477Z,9.00
2019-04-29T12:46:32.754Z,13.20
2019-04-29T12:49:08.521Z,11.00
2019-04-29T12:51:40.485Z,11.20
2019-04-29T12:54:13.468Z,9.80
2019-04-29T12:56:47.633Z,9.80
2019-04-29T12:59:21.325Z,11.20
2019-04-29T13:01:58.586Z,10.60
2019-04-29T13:04:29.314Z,12.60
2019-04-29T13:07:02.536Z,13.60
2019-04-29T13:09:35.409Z,12.00
2019-04-29T13:12:18.931Z,11.20
2019-04-29T13:14:43.034Z,15.00
2019-04-29T13:17:15.968Z,12.60
2019-04-29T13:20:00.768Z,13.20
2019-04-29T13:22:23.440Z,17.60
2019-04-29T13:24:56.348Z,14.80
2019-04-29T13:27:29.655Z,17.60
2019-04-29T13:30:07.206Z,14.20
2019-04-29T13:32:38.530Z,13.80
2019-04-29T13:35:12.721Z,16.20
2019-04-29T13:37:45.912Z,15.40
2019-04-29T13:40:19.921Z,14.80
2019-04-29T13:42:52.845Z,16.80
2019-04-29T13:45:26.452Z,16.00
2019-04-29T13:48:01.873Z,18.40
2019-04-29T13:50:39.909Z,17.20
2019-04-29T13:53:11.572Z,18.80
2019-04-29T13:55:49.427Z,18.00
2019-04-29T13:58:22.073Z,18.00
2019-04-29T14:00:55.703Z,16.80
2019-04-29T14:03:27.514Z,18.60
2019-04-29T14:06:04.160Z,20.00
2019-04-29T14:08:34.889Z,20.20
2019-04-29T14:11:07.781Z,16.80
2019-04-29T14:13:43.236Z,18.40
2019-04-29T14:16:15.213Z,17.60
2019-04-29T14:18:49.927Z,17.40
2019-04-29T14:21:25.641Z,17.20
2019-04-29T14:23:57.597Z,17.00
2019-04-29T14:26:30.525Z,17.00
2019-04-29T14:29:03.739Z,12.20
2019-04-29T14:31:36.577Z,16.40
2019-04-29T14:34:09.648Z,17.80
2019-04-29T14:36:43.553Z,14.60
2019-04-29T14:39:17.547Z,17.00
2019-04-29T14:41:55.465Z,14.40
2019-04-29T14:44:30.190Z,12.60
2019-04-29T14:47:01.330Z,15.00
2019-04-29T14:49:35.435Z,13.60
2019-04-29T14:52:13.299Z,12.40
2019-04-29T14:54:44.113Z,12.00
2019-04-29T14:57:17.090Z,12.60
2019-04-29T14:59:50.272Z,11.00
2019-04-29T15:02:23.492Z,10.80
2019-04-29T15:04:56.638Z,13.60
2019-04-29T15:07:29.872Z,11.00
2019-04-29T15:10:03.917Z,13.20
2019-04-29T15:12:50.980Z,12.80
2019-04-29T15:15:11.696Z,13.00
2019-04-29T15:17:46.272Z,11.60
2019-04-29T15:20:19.401Z,10.00
2019-04-29T15:22:52.290Z,8.00
2019-04-29T15:25:25.232Z,8.20
2019-04-29T15:27:58.267Z,7.60
2019-04-29T15:30:31.861Z,24.60
2019-04-29T15:33:06.199Z,31.00
2019-04-29T15:35:39.435Z,32.40
2019-04-29T15:38:12.350Z,34.40
2019-04-29T15:40:45.453Z,36.40
2019-04-29T15:43:24.618Z,26.80
2019-04-29T15:45:53.126Z,17.00
2019-04-29T15:48:26.028Z,20.00
2019-04-29T15:50:59.004Z,14.20
2019-04-29T15:53:33.973Z,12.20
2019-04-29T15:56:20.484Z,9.60
2019-04-29T15:58:41.926Z,7.80
2019-04-29T16:01:17.636Z,9.00
2019-04-29T16:03:54.047Z,11.40
2019-04-29T16:06:24.719Z,10.60
2019-04-29T16:08:59.050Z,12.00
2019-04-29T16:11:33.325Z,11.60
2019-04-29T16:14:10.276Z,10.00
2019-04-29T16:16:42.201Z,11.40
2019-04-29T16:19:15.139Z,12.40
2019-04-29T16:21:48.193Z,11.80
2019-04-29T16:24:37.162Z,10.60
2019-04-29T16:26:55.859Z,11.00
2019-04-29T16:29:30.443Z,10.60
2019-04-29T16:32:05.023Z,9.20
2019-04-29T16:34:44.644Z,11.00
2019-04-29T16:37:19.039Z,10.80
2019-04-29T16:39:47.699Z,9.80
2019-04-29T16:42:20.775Z,9.80
2019-04-29T16:44:53.654Z,12.20
2019-04-29T16:47:26.605Z,10.80
2019-04-29T16:50:04.687Z,13.40
2019-04-29T16:52:34.323Z,15.80
2019-04-29T16:55:07.584Z,9.40
2019-04-29T16:57:40.593Z,12.80
2019-04-29T17:00:15.830Z,16.20
2019-04-29T17:02:49.002Z,14.40
2019-04-29T17:05:21.919Z,13.40
2019-04-29T17:07:54.930Z,17.00
2019-04-29T17:10:27.969Z,15.00
2019-04-29T17:13:00.975Z,15.60
2019-04-29T17:15:34.405Z,12.60
2019-04-29T17:18:07.350Z,18.40
2019-04-29T17:20:40.699Z,18.40
2019-04-29T17:23:13.693Z,14.00
2019-04-29T17:25:46.742Z,17.40
2019-04-29T17:28:25.422Z,13.80
2019-04-29T17:30:54.854Z,13.60
2019-04-29T17:33:29.834Z,17.60
2019-04-29T17:36:03.094Z,16.20
2019-04-29T17:38:36.119Z,14.20
2019-04-29T17:41:09.384Z,19.20
2019-04-29T17:43:43.072Z,19.80
2019-04-29T17:46:17.069Z,17.80
2019-04-29T17:48:53.138Z,12.80
2019-04-29T17:51:24.881Z,18.80
2019-04-29T17:53:57.804Z,18.60
2019-04-29T17:56:30.919Z,20.00
2019-04-29T17:59:05.949Z,17.20
2019-04-29T18:01:42.853Z,17.20
2019-04-29T18:04:16.677Z,18.20
2019-04-29T18:06:48.883Z,18.00
2019-04-29T18:09:22.098Z,14.80
2019-04-29T18:11:57.519Z,18.00
2019-04-29T18:14:37.260Z,16.00
2019-04-29T18:17:05.007Z,15.60
2019-04-29T18:19:38.481Z,17.40
2019-04-29T18:22:11.527Z,12.00
2019-04-29T18:24:45.330Z,15.00
2019-04-29T18:27:18.664Z,14.40
2019-04-29T18:29:51.658Z,14.20
2019-04-29T18:32:34.984Z,19.00
2019-04-29T18:34:59.317Z,17.40
2019-04-29T18:37:36.913Z,11.40
2019-04-29T18:40:07.599Z,12.60
2019-04-29T18:42:43.329Z,15.60
2019-04-29T18:45:15.831Z,17.80
2019-04-29T18:47:48.813Z,14.60
2019-04-29T18:50:21.735Z,15.00
2019-04-29T18:52:56.043Z,18.40
2019-04-29T18:55:29.021Z,20.20
2019-04-29T18:58:02.445Z,19.20
2019-04-29T19:00:35.691Z,24.40
2019-04-29T19:03:08.720Z,98.75
2019-04-29T19:05:42.250Z,24.20
2019-04-29T19:08:22.815Z,20.40
2019-04-29T19:10:52.152Z,18.40
2019-04-29T19:13:26.069Z,17.40
2019-04-29T19:16:09.617Z,12.00
2019-04-29T19:18:34.049Z,14.20
2019-04-29T19:21:06.993Z,14.80
2019-04-29T19:23:40.037Z,17.40
2019-04-29T19:26:13.922Z,16.20
2019-04-29T19:28:46.857Z,14.40
2019-04-29T19:31:19.977Z,17.60
2019-04-29T19:33:55.055Z,16.00
2019-04-29T19:36:27.955Z,15.00
2019-04-29T19:39:00.990Z,16.80
2019-04-29T19:41:35.583Z,14.80
2019-04-29T19:44:08.598Z,17.80
2019-04-29T19:46:41.911Z,16.40
2019-04-29T19:49:15.786Z,15.00
2019-04-29T19:51:48.990Z,16.60
2019-04-29T19:54:26.636Z,16.20
2019-04-29T19:57:03.599Z,14.00
2019-04-29T19:59:32.545Z,14.00
2019-04-29T20:02:10.046Z,16.60
2019-04-29T20:04:40.853Z,15.00
2019-04-29T20:07:16.817Z,19.20
2019-04-29T20:09:49.600Z,10.00
2019-04-29T20:12:25.305Z,15.80
2019-04-29T20:14:59.790Z,16.40
2019-04-29T20:17:33.413Z,13.60
2019-04-29T20:20:07.074Z,14.80
2019-04-29T20:22:43.378Z,11.60
2019-04-29T20:25:16.471Z,13.00
2019-04-29T20:27:49.947Z,16.80
2019-04-29T20:30:23.156Z,20.60
2019-04-29T20:33:01.610Z,21.00
2019-04-29T20:35:32.151Z,22.20
2019-04-29T20:38:05.842Z,19.20
2019-04-29T20:40:43.179Z,21.40
2019-04-29T20:43:15.823Z,21.60
2019-04-29T20:45:48.445Z,19.80
2019-04-29T20:48:21.664Z,21.00
2019-04-29T20:50:56.590Z,17.80
2019-04-29T20:53:30.742Z,21.40
2019-04-29T20:56:12.248Z,16.40
2019-04-29T20:58:40.202Z,17.20
2019-04-29T21:01:15.509Z,19.80
2019-04-29T21:03:52.124Z,21.75
2019-04-29T21:06:23.085Z,18.25
2019-04-29T21:08:55.999Z,20.50
2019-04-29T21:11:29.196Z,16.20
2019-04-29T21:14:02.155Z,16.80
2019-04-29T21:16:35.199Z,15.40
2019-04-29T21:19:08.918Z,18.00
2019-04-29T21:21:43.758Z,17.60
2019-04-29T21:24:18.680Z,18.60
2019-04-29T21:26:51.505Z,20.00
2019-04-29T21:29:25.560Z,44.25
2019-04-29T21:32:01.622Z,23.00
2019-04-29T21:34:37.526Z,19.75
2019-04-29T21:37:10.046Z,19.75
2019-04-29T21:39:44.626Z,23.50
2019-04-29T21:42:17.653Z,19.25
2019-04-29T21:44:50.907Z,20.25
2019-04-29T21:47:26.810Z,19.00
2019-04-29T21:49:58.599Z,19.00
2019-04-29T21:52:31.503Z,19.25
2019-04-29T21:55:05.305Z,17.50
2019-04-29T21:57:38.274Z,18.75
2019-04-29T22:00:11.645Z,15.25
2019-04-29T22:02:46.687Z,19.50
2019-04-29T22:05:21.139Z,20.00
2019-04-29T22:07:54.256Z,17.50
2019-04-29T22:10:29.128Z,20.25
2019-04-29T22:13:02.924Z,24.75
2019-04-29T22:15:40.999Z,28.50
2019-04-29T22:18:14.073Z,18.75
2019-04-29T22:20:46.671Z,20.25
2019-04-29T22:23:19.639Z,25.75
2019-04-29T22:25:52.661Z,26.50
2019-04-29T22:28:25.636Z,34.75
2019-04-29T22:30:58.628Z,36.25
2019-04-29T22:33:34.873Z,35.50
2019-04-29T22:36:10.273Z,32.00
2019-04-29T22:38:43.619Z,32.25
2019-04-29T22:41:20.055Z,32.25
2019-04-29T22:43:50.883Z,25.75
2019-04-29T22:46:25.538Z,26.00
2019-04-29T22:48:58.647Z,27.75
2019-04-29T22:51:31.881Z,27.25
2019-04-29T22:54:05.024Z,26.20
2019-04-29T22:56:40.533Z,25.75
2019-04-29T22:59:14.761Z,26.25
2019-04-29T23:01:50.473Z,27.75
2019-04-29T23:04:22.540Z,25.00
2019-04-29T23:06:55.471Z,26.00
2019-04-29T23:09:28.443Z,27.50
2019-04-29T23:12:01.377Z,28.25
2019-04-29T23:14:36.026Z,25.50
2019-04-29T23:17:12.285Z,25.75
2019-04-29T23:19:46.613Z,24.75
2019-04-29T23:22:22.031Z,25.00
2019-04-29T23:24:53.372Z,28.75
2019-04-29T23:27:26.300Z,28.00
2019-04-29T23:29:59.204Z,26.75
2019-04-29T23:32:32.142Z,26.75
2019-04-29T23:35:09.665Z,25.60
2019-04-29T23:37:41.390Z,26.00
2019-04-29T23:40:14.347Z,24.50
2019-04-29T23:42:47.824Z,25.75
2019-04-29T23:45:22.450Z,25.50
2019-04-29T23:47:55.733Z,24.75
2019-04-29T23:50:28.756Z,25.00
2019-04-29T23:53:01.681Z,24.80
2019-04-29T23:55:35.631Z,23.25
2019-04-29T23:58:08.793Z,23.00
